createdAt,value
2019-02-12T00:00:22.980Z,1.10
2019-02-12T00:02:51.488Z,1.00
2019-02-12T00:05:19.909Z,0.90
2019-02-12T00:07:48.362Z,0.90
2019-02-12T00:10:16.782Z,0.90
2019-02-12T00:12:47.093Z,1.00
2019-02-12T00:15:15.520Z,1.10
2019-02-12T00:17:48.043Z,1.10
2019-02-12T00:20:19.475Z,1.00
2019-02-12T00:22:51.524Z,0.90
2019-02-12T00:25:19.932Z,0.80
2019-02-12T00:27:48.372Z,0.80
2019-02-12T00:30:16.777Z,0.70
2019-02-12T00:32:45.220Z,0.70
2019-02-12T00:35:13.643Z,0.60
2019-02-12T00:37:42.091Z,0.50
2019-02-12T00:40:10.565Z,0.40
2019-02-12T00:42:39.007Z,0.30
2019-02-12T00:45:10.741Z,0.20
2019-02-12T00:47:39.194Z,0.20
2019-02-12T00:50:14.054Z,0.20
2019-02-12T00:52:45.269Z,0.20
2019-02-12T00:55:13.700Z,0.10
2019-02-12T00:57:42.145Z,0.00
2019-02-12T01:00:13.774Z,0.00
2019-02-12T01:02:42.255Z,0.00
2019-02-12T01:05:11.001Z,-0.10
2019-02-12T01:07:39.445Z,-0.10
2019-02-12T01:10:10.517Z,-0.10
2019-02-12T01:12:38.937Z,0.00
2019-02-12T01:15:11.491Z,0.00
2019-02-12T01:17:41.781Z,0.00
2019-02-12T01:20:13.718Z,-0.10
2019-02-12T01:22:42.293Z,-0.30
2019-02-12T01:25:10.905Z,-0.10
2019-02-12T01:27:39.332Z,-0.20
2019-02-12T01:30:10.985Z,-0.20
2019-02-12T01:32:39.639Z,-0.30
2019-02-12T01:35:08.086Z,-0.30
2019-02-12T01:37:36.521Z,-0.40
2019-02-12T01:40:08.381Z,-0.40
2019-02-12T01:42:40.676Z,-0.50
2019-02-12T01:45:10.768Z,-0.50
2019-02-12T01:47:40.309Z,-0.60
2019-02-12T01:50:10.984Z,-0.60
2019-02-12T01:52:39.425Z,-0.70
2019-02-12T01:55:12.408Z,-0.70
2019-02-12T01:57:40.939Z,-0.70
2019-02-12T02:00:12.267Z,-0.80
2019-02-12T02:02:40.751Z,-0.80
2019-02-12T02:05:14.447Z,-0.80
2019-02-12T02:07:42.875Z,-0.80
2019-02-12T02:10:16.781Z,-0.90
2019-02-12T02:12:45.212Z,-0.90
2019-02-12T02:15:14.279Z,-0.90
2019-02-12T02:17:42.707Z,-0.90
2019-02-12T02:20:13.404Z,-0.90
2019-02-12T02:22:43.922Z,-1.00
2019-02-12T02:25:15.016Z,-1.00
2019-02-12T02:27:43.448Z,-1.10
2019-02-12T02:30:16.201Z,-1.10
2019-02-12T02:32:46.684Z,-1.10
2019-02-12T02:35:15.793Z,-1.00
2019-02-12T02:37:49.213Z,-1.00
2019-02-12T02:40:21.868Z,-1.00
2019-02-12T02:42:50.343Z,-1.00
2019-02-12T02:45:18.859Z,-1.10
2019-02-12T02:47:47.415Z,-1.10
2019-02-12T02:50:15.840Z,-1.10
2019-02-12T02:52:44.333Z,-1.10
2019-02-12T02:55:16.003Z,-1.10
2019-02-12T02:57:44.440Z,-1.10
2019-02-12T03:00:16.593Z,-1.10
2019-02-12T03:02:45.022Z,-1.10
2019-02-12T03:05:15.211Z,-1.20
2019-02-12T03:07:43.660Z,-1.20
2019-02-12T03:10:12.220Z,-1.10
2019-02-12T03:12:40.664Z,-1.20
2019-02-12T03:15:11.076Z,-1.10
2019-02-12T03:17:41.884Z,-1.10
2019-02-12T03:20:11.768Z,-1.10
2019-02-12T03:22:40.219Z,-1.10
2019-02-12T03:25:10.095Z,-1.10
2019-02-12T03:27:38.669Z,-1.10
2019-02-12T03:30:13.105Z,-1.10
2019-02-12T03:32:41.709Z,-1.10
2019-02-12T03:35:10.999Z,-1.10
2019-02-12T03:37:39.495Z,-1.20
2019-02-12T03:40:12.993Z,-1.20
2019-02-12T03:42:41.454Z,-1.20
2019-02-12T03:45:14.036Z,-1.30
2019-02-12T03:47:43.744Z,-1.30
2019-02-12T03:50:12.554Z,-1.30
2019-02-12T03:52:43.432Z,-1.20
2019-02-12T03:55:13.127Z,-1.20
2019-02-12T03:57:42.915Z,-1.10
2019-02-12T04:00:14.092Z,-1.20
2019-02-12T04:03:02.017Z,-1.20
2019-02-12T04:05:30.501Z,-1.20
2019-02-12T04:08:04.535Z,-1.20
2019-02-12T04:10:36.031Z,-1.20
2019-02-12T04:13:06.162Z,-1.30
2019-02-12T04:15:34.855Z,-1.30
2019-02-12T04:18:03.285Z,-1.30
2019-02-12T04:20:31.696Z,-1.40
2019-02-12T04:23:00.143Z,-1.40
2019-02-12T04:25:28.582Z,-1.40
2019-02-12T04:27:58.118Z,-1.40
2019-02-12T04:30:30.205Z,-1.50
2019-02-12T04:32:58.707Z,-1.50
2019-02-12T04:35:27.116Z,-1.60
2019-02-12T04:37:55.564Z,-1.60
2019-02-12T04:40:23.994Z,-1.50
2019-02-12T04:42:52.458Z,-1.60
2019-02-12T04:45:24.797Z,-1.70
2019-02-12T04:47:53.263Z,-1.70
2019-02-12T04:50:22.205Z,-1.70
2019-02-12T04:52:56.263Z,-1.70
2019-02-12T04:55:24.675Z,-1.70
2019-02-12T04:57:58.705Z,-1.60
2019-02-12T05:00:27.124Z,-1.60
2019-02-12T05:02:55.558Z,-1.60
2019-02-12T05:05:23.990Z,-1.60
2019-02-12T05:08:01.899Z,-1.60
2019-02-12T05:10:45.154Z,-1.60
2019-02-12T05:13:13.609Z,-1.70
2019-02-12T05:15:46.693Z,-1.70
2019-02-12T05:18:15.136Z,-1.70
2019-02-12T05:20:43.968Z,-1.70
2019-02-12T05:23:12.550Z,-1.80
2019-02-12T05:25:43.998Z,-1.80
2019-02-12T05:28:12.416Z,-1.80
2019-02-12T05:30:40.850Z,-1.80
2019-02-12T05:33:22.105Z,-1.80
2019-02-12T05:35:52.545Z,-1.80
2019-02-12T05:38:23.077Z,-1.80
2019-02-12T05:40:51.506Z,-1.80
2019-02-12T05:43:19.946Z,-1.90
2019-02-12T05:45:48.381Z,-1.90
2019-02-12T05:48:17.059Z,-1.80
2019-02-12T05:50:45.579Z,-1.90
2019-02-12T05:53:14.015Z,-1.80
2019-02-12T05:55:43.364Z,-1.80
2019-02-12T05:58:14.943Z,-1.80
2019-02-12T06:00:43.384Z,-1.80
2019-02-12T06:03:11.810Z,-1.90
2019-02-12T06:05:40.268Z,-2.00
2019-02-12T06:08:08.695Z,-2.10
2019-02-12T06:10:37.137Z,-2.20
2019-02-12T06:13:08.792Z,-2.20
2019-02-12T06:15:37.227Z,-2.20
2019-02-12T06:18:05.684Z,-2.20
2019-02-12T06:20:35.056Z,-2.10
2019-02-12T06:23:04.317Z,-2.00
2019-02-12T06:25:32.891Z,-2.00
2019-02-12T06:28:01.329Z,-2.00
2019-02-12T06:30:32.754Z,-2.00
2019-02-12T06:33:07.290Z,-2.00
2019-02-12T06:35:31.356Z,-1.90
2019-02-12T06:38:02.532Z,-1.80
2019-02-12T06:40:30.983Z,-1.80
2019-02-12T06:42:59.405Z,-1.70
2019-02-12T06:45:27.860Z,-1.70
2019-02-12T06:47:56.308Z,-1.70
2019-02-12T06:50:25.019Z,-1.70
2019-02-12T06:52:54.362Z,-1.60
2019-02-12T06:55:25.198Z,-1.60
2019-02-12T06:58:11.921Z,-1.60
2019-02-12T07:03:42.668Z,-1.60
2019-02-12T07:06:19.732Z,-1.50
2019-02-12T07:09:26.017Z,-1.50
2019-02-12T07:15:11.540Z,-1.40
2019-02-12T07:18:14.679Z,-1.40
2019-02-12T07:21:03.940Z,-1.30
2019-02-12T07:23:53.000Z,-1.30
2019-02-12T07:26:33.662Z,-1.20
2019-02-12T07:29:10.719Z,-1.20
2019-02-12T07:32:01.356Z,-1.10
2019-02-12T07:34:58.152Z,-1.00
2019-02-12T07:37:56.552Z,-1.00
2019-02-12T07:40:42.864Z,-1.00
2019-02-12T07:43:23.429Z,-0.90
2019-02-12T07:45:54.948Z,-0.90
2019-02-12T07:48:28.696Z,-0.90
2019-02-12T07:51:09.983Z,-0.80
2019-02-12T07:53:42.355Z,-0.70
2019-02-12T07:56:29.126Z,-0.60
2019-02-12T07:59:10.192Z,-0.50
2019-02-12T08:02:02.617Z,-0.40
2019-02-12T08:04:34.788Z,-0.20
2019-02-12T08:07:09.176Z,-0.10
2019-02-12T08:10:15.431Z,0.10
2019-02-12T08:12:47.033Z,0.30
2019-02-12T08:15:35.546Z,0.60
2019-02-12T08:18:07.655Z,0.70
2019-02-12T08:20:58.427Z,0.90
2019-02-12T08:23:57.191Z,1.30
2019-02-12T08:26:34.152Z,1.90
2019-02-12T08:29:26.388Z,2.20
2019-02-12T08:31:57.917Z,2.10
2019-02-12T08:34:50.380Z,1.90
2019-02-12T08:37:36.669Z,2.20
2019-02-12T08:40:29.871Z,2.20
2019-02-12T08:43:06.990Z,2.20
2019-02-12T08:45:51.070Z,2.00
2019-02-12T08:48:31.374Z,1.90
2019-02-12T08:51:08.653Z,2.00
2019-02-12T08:54:14.829Z,2.10
2019-02-12T08:57:01.157Z,2.20
2019-02-12T08:59:38.818Z,2.10
2019-02-12T09:02:28.303Z,2.10
2019-02-12T09:05:04.125Z,2.10
2019-02-12T09:07:41.278Z,2.20
2019-02-12T09:10:19.421Z,2.20
2019-02-12T09:12:56.921Z,2.30
2019-02-12T09:15:48.110Z,2.60
2019-02-12T09:18:19.911Z,2.90
2019-02-12T09:21:16.634Z,3.30
2019-02-12T09:24:00.177Z,3.20
2019-02-12T09:26:52.152Z,3.20
2019-02-12T09:29:26.190Z,3.00
2019-02-12T09:32:15.426Z,3.20
2019-02-12T09:34:55.344Z,3.20
2019-02-12T09:37:50.854Z,3.40
2019-02-12T09:40:25.099Z,3.70
2019-02-12T09:43:13.018Z,3.80
2019-02-12T09:46:04.733Z,3.80
2019-02-12T09:48:36.444Z,4.10
2019-02-12T09:51:31.681Z,4.10
2019-02-12T09:54:08.892Z,3.80
2019-02-12T09:56:57.826Z,4.00
2019-02-12T09:59:34.954Z,4.90
2019-02-12T10:02:11.900Z,5.50
2019-02-12T10:04:59.692Z,5.30
2019-02-12T10:07:39.994Z,5.00
2019-02-12T10:10:26.370Z,4.60
2019-02-12T10:13:03.566Z,4.70
2019-02-12T10:15:37.957Z,4.50
2019-02-12T10:18:09.475Z,4.30
2019-02-12T10:20:58.876Z,4.00
2019-02-12T10:23:36.129Z,4.00
2019-02-12T10:26:09.910Z,4.20
2019-02-12T10:29:05.135Z,4.30
2019-02-12T10:31:43.476Z,4.70
2019-02-12T10:34:14.173Z,5.00
2019-02-12T10:36:42.247Z,4.90
2019-02-12T10:39:13.599Z,5.30
2019-02-12T10:41:42.018Z,5.20
2019-02-12T10:44:10.440Z,5.10
2019-02-12T10:46:39.635Z,5.20
2019-02-12T10:49:08.074Z,5.00
2019-02-12T10:51:36.499Z,4.70
2019-02-12T10:54:04.928Z,4.80
2019-02-12T10:56:33.429Z,4.80
2019-02-12T10:59:01.878Z,5.10
2019-02-12T11:01:30.288Z,5.20
2019-02-12T11:03:58.723Z,5.30
2019-02-12T11:06:27.146Z,5.30
2019-02-12T11:08:55.580Z,5.40
2019-02-12T11:11:24.649Z,5.30
2019-02-12T11:13:53.068Z,5.10
2019-02-12T11:16:26.059Z,5.10
2019-02-12T11:18:54.507Z,5.00
2019-02-12T11:21:22.920Z,4.90
2019-02-12T11:23:56.046Z,4.80
2019-02-12T11:26:24.604Z,4.80
2019-02-12T11:28:57.070Z,4.80
2019-02-12T11:31:25.632Z,4.90
2019-02-12T11:33:54.047Z,5.00
2019-02-12T11:36:22.512Z,4.80
2019-02-12T11:38:51.796Z,4.90
2019-02-12T11:41:22.996Z,5.00
2019-02-12T11:43:51.718Z,5.10
2019-02-12T11:46:20.224Z,5.20
2019-02-12T11:48:49.988Z,5.20
2019-02-12T11:51:18.404Z,5.20
2019-02-12T11:53:46.819Z,5.30
2019-02-12T11:56:16.203Z,5.20
2019-02-12T11:58:45.275Z,5.20
2019-02-12T12:01:14.492Z,5.10
2019-02-12T12:03:42.936Z,5.20
2019-02-12T12:06:11.370Z,5.20
2019-02-12T12:08:40.023Z,5.50
2019-02-12T12:11:08.453Z,5.60
2019-02-12T12:13:37.756Z,5.70
2019-02-12T12:16:09.018Z,5.70
2019-02-12T12:18:37.608Z,5.90
2019-02-12T12:21:06.033Z,5.90
2019-02-12T12:23:34.452Z,5.90
2019-02-12T12:26:02.888Z,5.90
2019-02-12T12:28:31.693Z,5.80
2019-02-12T12:31:00.394Z,5.70
2019-02-12T12:33:28.814Z,5.80
2019-02-12T12:36:00.228Z,6.10
2019-02-12T12:38:30.671Z,6.20
2019-02-12T12:40:59.672Z,6.20
2019-02-12T12:43:29.781Z,6.30
2019-02-12T12:45:58.628Z,6.30
2019-02-12T12:48:28.116Z,6.30
2019-02-12T12:50:56.525Z,6.30
2019-02-12T12:53:27.018Z,6.40
2019-02-12T12:55:55.456Z,6.40
2019-02-12T12:58:26.510Z,6.40
2019-02-12T13:00:56.274Z,6.50
2019-02-12T13:03:24.851Z,6.50
2019-02-12T13:05:53.288Z,6.50
2019-02-12T13:08:21.774Z,6.30
2019-02-12T13:10:50.204Z,6.30
2019-02-12T13:13:18.628Z,6.30
2019-02-12T13:15:47.048Z,6.20
2019-02-12T13:18:15.487Z,6.00
2019-02-12T13:20:44.797Z,6.00
2019-02-12T13:23:13.216Z,6.00
2019-02-12T13:25:41.636Z,6.20
2019-02-12T13:28:10.106Z,6.30
2019-02-12T13:30:38.525Z,6.40
2019-02-12T13:33:06.975Z,6.40
2019-02-12T13:35:35.396Z,6.30
2019-02-12T13:38:03.917Z,6.30
2019-02-12T13:40:32.340Z,6.30
2019-02-12T13:43:00.768Z,6.30
2019-02-12T13:45:29.224Z,6.20
2019-02-12T13:47:57.728Z,6.10
2019-02-12T13:50:26.144Z,6.20
2019-02-12T13:52:54.873Z,6.20
2019-02-12T13:55:23.292Z,6.30
2019-02-12T13:57:52.649Z,6.20
2019-02-12T14:00:24.131Z,6.20
2019-02-12T14:02:52.565Z,6.00
2019-02-12T14:05:22.775Z,6.00
2019-02-12T14:07:53.504Z,6.00
2019-02-12T14:10:22.269Z,6.10
2019-02-12T14:12:50.916Z,6.10
2019-02-12T14:15:19.430Z,6.20
2019-02-12T14:17:47.861Z,6.20
2019-02-12T14:20:19.327Z,6.30
2019-02-12T14:22:49.883Z,6.40
2019-02-12T14:25:25.715Z,6.20
2019-02-12T14:27:52.590Z,6.10
2019-02-12T14:30:22.168Z,5.90
2019-02-12T14:32:50.590Z,5.80
2019-02-12T14:35:20.686Z,5.80
2019-02-12T14:37:50.648Z,5.80
2019-02-12T14:40:19.082Z,5.70
2019-02-12T14:42:47.513Z,5.70
2019-02-12T14:45:18.153Z,5.70
2019-02-12T14:47:49.159Z,5.70
2019-02-12T14:50:22.874Z,5.80
2019-02-12T14:52:53.033Z,5.80
2019-02-12T14:55:21.822Z,5.80
2019-02-12T14:57:52.778Z,5.70
2019-02-12T15:00:24.405Z,5.80
2019-02-12T15:02:52.812Z,5.80
2019-02-12T15:05:22.943Z,5.80
2019-02-12T15:07:51.735Z,5.90
2019-02-12T15:10:20.167Z,5.80
2019-02-12T15:12:48.581Z,5.70
2019-02-12T15:15:17.084Z,5.80
2019-02-12T15:17:45.508Z,5.80
2019-02-12T15:20:13.999Z,5.80
2019-02-12T15:22:42.784Z,5.80
2019-02-12T15:25:12.183Z,5.80
2019-02-12T15:27:40.885Z,5.70
2019-02-12T15:30:18.404Z,5.70
2019-02-12T15:32:48.708Z,5.70
2019-02-12T15:35:17.151Z,5.70
2019-02-12T15:37:45.564Z,5.80
2019-02-12T15:40:20.616Z,5.70
2019-02-12T15:42:49.036Z,5.70
2019-02-12T15:45:21.572Z,5.60
2019-02-12T15:47:49.989Z,5.60
2019-02-12T15:50:20.649Z,5.50
2019-02-12T15:52:49.050Z,5.40
2019-02-12T15:55:18.871Z,5.40
2019-02-12T15:57:48.649Z,5.30
2019-02-12T16:00:20.649Z,5.20
2019-02-12T16:02:50.891Z,5.20
2019-02-12T16:05:19.323Z,5.10
2019-02-12T16:07:47.875Z,5.10
2019-02-12T16:10:20.065Z,5.00
2019-02-12T16:12:49.472Z,5.00
2019-02-12T16:15:21.899Z,4.90
2019-02-12T16:17:49.588Z,4.90
2019-02-12T16:20:18.006Z,4.80
2019-02-12T16:22:48.327Z,4.70
2019-02-12T16:25:18.960Z,4.70
2019-02-12T16:27:48.542Z,4.60
2019-02-12T16:30:22.271Z,4.50
2019-02-12T16:32:50.700Z,4.50
2019-02-12T16:35:20.268Z,4.40
2019-02-12T16:37:48.827Z,4.30
2019-02-12T16:40:18.232Z,4.20
2019-02-12T16:42:46.931Z,4.20
2019-02-12T16:45:23.775Z,4.10
2019-02-12T16:47:52.212Z,4.00
2019-02-12T16:50:20.636Z,4.00
2019-02-12T16:52:49.063Z,3.90
2019-02-12T16:55:17.548Z,3.80
2019-02-12T16:57:45.979Z,3.70
2019-02-12T17:00:18.984Z,3.50
2019-02-12T17:02:48.716Z,3.40
2019-02-12T17:05:19.203Z,3.30
2019-02-12T17:07:47.635Z,3.20
2019-02-12T17:10:16.362Z,3.10
2019-02-12T17:12:45.215Z,3.00
2019-02-12T17:15:15.307Z,2.90
2019-02-12T17:17:43.757Z,2.80
2019-02-12T17:20:17.324Z,2.80
2019-02-12T17:22:45.739Z,2.70
2019-02-12T17:25:14.601Z,2.60
2019-02-12T17:27:43.055Z,2.50
2019-02-12T17:30:15.139Z,2.50
2019-02-12T17:32:43.597Z,2.40
2019-02-12T17:35:12.087Z,2.30
2019-02-12T17:37:40.549Z,2.30
2019-02-12T17:40:14.216Z,2.20
2019-02-12T17:42:42.709Z,2.10
2019-02-12T17:45:20.815Z,2.10
2019-02-12T17:47:51.893Z,2.00
2019-02-12T17:50:20.298Z,1.90
2019-02-12T17:52:49.875Z,1.80
2019-02-12T17:55:18.343Z,1.80
2019-02-12T17:57:48.260Z,1.80
2019-02-12T18:00:32.723Z,1.70
2019-02-12T18:03:01.159Z,1.60
2019-02-12T18:05:30.007Z,1.50
2019-02-12T18:07:58.510Z,1.50
2019-02-12T18:10:26.936Z,1.50
2019-02-12T18:12:55.684Z,1.50
2019-02-12T18:15:24.167Z,1.50
2019-02-12T18:17:52.658Z,1.40
2019-02-12T18:20:26.345Z,1.40
2019-02-12T18:22:52.440Z,1.40
2019-02-12T18:25:20.837Z,1.30
2019-02-12T18:27:49.275Z,1.30
2019-02-12T18:30:20.410Z,1.30
2019-02-12T18:32:49.527Z,1.20
2019-02-12T18:35:17.992Z,1.20
2019-02-12T18:37:46.426Z,1.10
2019-02-12T18:40:16.118Z,1.00
2019-02-12T18:42:44.544Z,1.00
2019-02-12T18:45:21.635Z,1.00
2019-02-12T18:47:50.051Z,0.90
2019-02-12T18:50:18.529Z,0.90
2019-02-12T18:52:46.932Z,0.80
2019-02-12T18:55:16.305Z,0.70
2019-02-12T18:57:44.720Z,0.70
2019-02-12T19:00:17.985Z,0.60
2019-02-12T19:02:47.105Z,0.60
2019-02-12T19:05:15.590Z,0.50
2019-02-12T19:07:46.730Z,0.40
2019-02-12T19:10:17.202Z,0.40
2019-02-12T19:12:47.039Z,0.40
2019-02-12T19:15:18.188Z,0.40
2019-02-12T19:17:52.789Z,0.40
2019-02-12T19:20:21.832Z,0.30
2019-02-12T19:22:53.201Z,0.30
2019-02-12T19:25:23.512Z,0.20
2019-02-12T19:27:52.169Z,0.20
2019-02-12T19:30:20.574Z,0.20
2019-02-12T19:32:51.461Z,0.10
2019-02-12T19:35:19.977Z,0.00
2019-02-12T19:37:48.391Z,0.00
2019-02-12T19:40:16.840Z,-0.10
2019-02-12T19:42:49.736Z,-0.10
2019-02-12T19:45:18.553Z,-0.20
2019-02-12T19:47:47.057Z,-0.20
2019-02-12T19:50:15.742Z,-0.30
2019-02-12T19:52:44.235Z,-0.30
2019-02-12T19:55:13.077Z,-0.40
2019-02-12T19:57:41.509Z,-0.40
2019-02-12T20:00:19.922Z,-0.40
2019-02-12T20:02:49.527Z,-0.50
2019-02-12T20:05:18.031Z,-0.50
2019-02-12T20:07:50.580Z,-0.60
2019-02-12T20:10:19.292Z,-0.60
2019-02-12T20:12:47.711Z,-0.60
2019-02-12T20:15:22.565Z,-0.70
2019-02-12T20:17:50.981Z,-0.70
2019-02-12T20:20:19.433Z,-0.80
2019-02-12T20:22:47.864Z,-0.80
2019-02-12T20:25:16.333Z,-0.80
2019-02-12T20:27:44.736Z,-0.90
2019-02-12T20:30:19.682Z,-1.00
2019-02-12T20:32:48.113Z,-0.90
2019-02-12T20:35:23.941Z,-0.90
2019-02-12T20:37:52.367Z,-0.90
2019-02-12T20:40:21.007Z,-1.00
2019-02-12T20:42:49.428Z,-1.00
2019-02-12T20:45:19.522Z,-1.00
2019-02-12T20:47:48.093Z,-1.00
2019-02-12T20:50:18.745Z,-1.00
2019-02-12T20:52:47.181Z,-1.10
2019-02-12T20:55:15.942Z,-1.10
2019-02-12T20:57:44.356Z,-1.20
2019-02-12T21:00:24.954Z,-1.20
2019-02-12T21:02:53.374Z,-1.30
2019-02-12T21:05:23.813Z,-1.30
2019-02-12T21:07:52.232Z,-1.30
2019-02-12T21:10:24.373Z,-1.30
2019-02-12T21:12:52.891Z,-1.30
2019-02-12T21:15:24.382Z,-1.40
2019-02-12T21:17:53.827Z,-1.40
2019-02-12T21:20:23.257Z,-1.40
2019-02-12T21:22:51.704Z,-1.40
2019-02-12T21:25:20.160Z,-1.40
2019-02-12T21:27:48.593Z,-1.50
2019-02-12T21:30:27.708Z,-1.50
2019-02-12T21:32:56.158Z,-1.60
2019-02-12T21:35:24.583Z,-1.60
2019-02-12T21:37:54.596Z,-1.60
2019-02-12T21:40:25.437Z,-1.60
2019-02-12T21:42:53.891Z,-1.50
2019-02-12T21:45:22.569Z,-1.50
2019-02-12T21:47:51.032Z,-1.60
2019-02-12T21:50:19.455Z,-1.60
2019-02-12T21:52:49.384Z,-1.60
2019-02-12T21:55:23.191Z,-1.60
2019-02-12T21:57:53.385Z,-1.50
2019-02-12T22:00:24.879Z,-1.60
2019-02-12T22:02:54.822Z,-1.60
2019-02-12T22:05:23.258Z,-1.70
2019-02-12T22:07:55.754Z,-1.70
2019-02-12T22:10:35.698Z,-1.70
2019-02-12T22:13:04.465Z,-1.70
2019-02-12T22:15:32.912Z,-1.70
2019-02-12T22:18:04.586Z,-1.80
2019-02-12T22:20:33.844Z,-1.80
2019-02-12T22:23:02.318Z,-1.80
2019-02-12T22:25:30.834Z,-1.90
2019-02-12T22:27:59.292Z,-1.90
2019-02-12T22:30:27.745Z,-1.90
2019-02-12T22:32:56.209Z,-1.90
2019-02-12T22:35:24.635Z,-1.90
2019-02-12T22:37:53.070Z,-1.90
2019-02-12T22:40:21.531Z,-1.90
2019-02-12T22:42:51.040Z,-1.90
2019-02-12T22:45:23.534Z,-1.90
2019-02-12T22:47:53.113Z,-1.90
2019-02-12T22:50:21.565Z,-1.90
2019-02-12T22:52:50.063Z,-2.00
2019-02-12T22:55:20.489Z,-2.00
2019-02-12T22:57:49.765Z,-2.00
2019-02-12T23:00:47.288Z,-2.00
2019-02-12T23:03:15.765Z,-2.00
2019-02-12T23:05:44.184Z,-2.00
2019-02-12T23:08:15.224Z,-2.10
2019-02-12T23:10:43.642Z,-2.10
2019-02-12T23:13:12.106Z,-2.10
2019-02-12T23:15:40.570Z,-2.10
2019-02-12T23:18:11.015Z,-2.10
2019-02-12T23:20:39.813Z,-2.10
2019-02-12T23:23:10.991Z,-2.20
2019-02-12T23:25:39.423Z,-2.20
2019-02-12T23:28:07.870Z,-2.20
2019-02-12T23:30:36.299Z,-2.30
2019-02-12T23:33:04.803Z,-2.30
2019-02-12T23:35:33.233Z,-2.30
2019-02-12T23:38:01.696Z,-2.30
2019-02-12T23:40:30.198Z,-2.40
2019-02-12T23:42:58.656Z,-2.40
2019-02-12T23:45:27.075Z,-2.40
2019-02-12T23:47:59.019Z,-2.40
2019-02-12T23:50:27.445Z,-2.40
2019-02-12T23:52:55.905Z,-2.40
2019-02-12T23:55:24.331Z,-2.40
2019-02-12T23:57:52.947Z,-2.40
